Time;durP1;ratioP1;P1;durP2;ratioP2;P2;SDS_P1;SDS_P2;PMS_P1;PMS_P2;Temp;Humidity;BMP_temperature;BMP_pressure;BME280_temperature;BME280_humidity;BME280_pressure;Samples;Min_cycle;Max_cycle;Signal;HPM_P1;HPM_P2
2023/06/01 00:01:58;;;;;;;11.70;5.60;;;;;;;19.34;67.41;101311.00;5013502;28;20384;-80
2023/06/01 00:04:24;;;;;;;13.10;5.45;;;;;;;19.38;67.05;101306.88;4995586;28;20391;-80
2023/06/01 00:06:49;;;;;;;13.87;5.47;;;;;;;19.30;67.25;101310.59;5013845;28;20387;-81
2023/06/01 00:09:15;;;;;;;14.30;5.35;;;;;;;19.19;67.51;101316.66;5013958;28;20387;-79
2023/06/01 00:11:41;;;;;;;12.57;4.70;;;;;;;19.12;67.38;101308.59;5014285;28;20449;-80
2023/06/01 00:14:06;;;;;;;9.45;4.78;;;;;;;19.08;67.30;101304.69;5014989;28;20407;-80
2023/06/01 00:16:32;;;;;;;12.73;5.30;;;;;;;19.07;67.19;101306.56;5013577;28;20388;-79
2023/06/01 00:19:00;;;;;;;11.73;5.00;;;;;;;19.06;67.04;101307.59;5014301;28;20391;-78
2023/06/01 00:21:26;;;;;;;12.60;5.20;;;;;;;19.00;67.23;101313.00;4998047;28;20402;-80
2023/06/01 00:23:52;;;;;;;12.75;4.88;;;;;;;19.00;67.28;101307.63;5014542;28;20438;-79
2023/06/01 00:26:17;;;;;;;11.55;5.18;;;;;;;19.01;67.03;101303.91;5014848;28;20384;-79
2023/06/01 00:28:43;;;;;;;14.37;5.30;;;;;;;19.00;67.02;101304.94;5012660;28;20974;-80
2023/06/01 00:31:08;;;;;;;12.90;5.18;;;;;;;18.96;67.19;101307.22;5012552;28;20416;-80
2023/06/01 00:33:34;;;;;;;11.23;5.20;;;;;;;18.96;67.40;101298.31;5013760;28;20400;-80
2023/06/01 00:35:59;;;;;;;14.27;5.27;;;;;;;18.97;67.10;101300.81;5014490;28;21130;-79
2023/06/01 00:38:25;;;;;;;16.00;5.10;;;;;;;18.99;67.21;101306.78;4997636;28;21279;-80
2023/06/01 00:40:51;;;;;;;15.43;5.07;;;;;;;18.99;67.32;101301.41;5015161;28;20372;-79
2023/06/01 00:43:19;;;;;;;14.40;5.40;;;;;;;19.04;67.01;101296.25;5013292;28;20442;-80
2023/06/01 00:45:45;;;;;;;11.90;5.00;;;;;;;19.12;66.73;101297.84;5012447;28;20400;-80
2023/06/01 00:48:12;;;;;;;14.20;5.30;;;;;;;19.14;66.62;101300.34;5012220;28;20394;-80
2023/06/01 00:50:38;;;;;;;14.03;5.60;;;;;;;19.06;66.95;101298.72;5013822;28;20384;-81
2023/06/01 00:53:06;;;;;;;11.33;5.13;;;;;;;19.07;66.93;101300.38;5014769;28;20474;-79
2023/06/01 00:55:34;;;;;;;12.10;5.20;;;;;;;19.01;67.21;101298.53;5013341;28;20426;-80
2023/06/01 00:58:00;;;;;;;14.07;5.45;;;;;;;19.11;66.98;101298.91;4996964;28;20412;-80
2023/06/01 01:00:28;;;;;;;13.43;5.47;;;;;;;19.20;66.53;101292.25;5014527;28;20803;-80
2023/06/01 01:02:56;;;;;;;14.37;5.43;;;;;;;19.29;66.29;101304.41;5014145;28;20481;-79
2023/06/01 01:05:26;;;;;;;12.37;5.10;;;;;;;19.38;66.12;101299.63;5017491;28;20869;-80
2023/06/01 01:08:30;;;;;;;13.90;5.70;;;;;;;19.48;65.88;101307.22;5014837;28;20388;-79
2023/06/01 01:11:07;;;;;;;17.40;6.03;;;;;;;19.48;65.67;101302.69;5014840;28;20387;-79
2023/06/01 01:13:54;;;;;;;13.82;5.97;;;;;;;19.52;65.42;101300.38;5014189;28;20454;-79
2023/06/01 01:16:35;;;;;;;11.73;5.53;;;;;;;19.56;65.30;101298.91;5018722;28;20414;-80
2023/06/01 01:19:21;;;;;;;12.23;5.68;;;;;;;19.57;65.13;101295.19;5018474;28;20376;-81
2023/06/01 01:21:52;;;;;;;13.60;5.73;;;;;;;19.53;65.46;101296.66;5019373;28;20380;-82
2023/06/01 01:24:30;;;;;;;12.00;5.57;;;;;;;19.51;65.38;101287.97;5022707;28;20387;-82
2023/06/01 01:27:25;;;;;;;13.98;5.45;;;;;;;19.40;65.75;101292.16;5000877;28;20733;-81
2023/06/01 01:29:55;;;;;;;12.43;5.28;;;;;;;19.30;65.88;101286.41;4995698;28;20419;-81
2023/06/01 01:32:23;;;;;;;13.38;5.72;;;;;;;19.33;66.01;101304.81;5018581;28;20384;-81
2023/06/01 01:34:51;;;;;;;12.20;5.20;;;;;;;19.32;65.88;101300.50;5024275;28;20412;-79
2023/06/01 01:37:16;;;;;;;14.85;5.50;;;;;;;19.36;65.65;101296.31;5027754;28;20376;-79
2023/06/01 01:39:42;;;;;;;12.85;5.75;;;;;;;19.34;65.78;101292.19;5028715;28;20384;-79
2023/06/01 01:42:08;;;;;;;12.73;5.57;;;;;;;19.44;65.32;101288.00;5029751;28;20380;-81
2023/06/01 01:44:33;;;;;;;12.85;5.32;;;;;;;19.47;65.24;101298.34;5030696;28;20391;-80
2023/06/01 01:47:10;;;;;;;10.48;5.05;;;;;;;19.42;65.33;101292.78;5029752;28;20377;-79
2023/06/01 01:49:46;;;;;;;10.73;5.03;;;;;;;19.38;65.59;101290.75;5025659;28;20424;-80
2023/06/01 01:52:20;;;;;;;11.48;5.38;;;;;;;19.41;65.35;101296.50;5017448;28;20384;-81
2023/06/01 01:54:49;;;;;;;10.70;5.32;;;;;;;19.54;64.92;101295.63;5015259;28;20420;-80
2023/06/01 01:57:17;;;;;;;12.13;5.43;;;;;;;19.53;64.73;101291.25;5016675;28;20474;-81
2023/06/01 01:59:43;;;;;;;10.30;5.50;;;;;;;19.48;64.74;101294.63;5015421;28;20449;-80
2023/06/01 02:02:09;;;;;;;11.85;5.30;;;;;;;19.48;65.04;101301.84;5015927;28;20395;-80
2023/06/01 02:04:40;;;;;;;13.07;5.25;;;;;;;19.51;64.75;101298.72;5015362;28;20936;-80
2023/06/01 02:07:06;;;;;;;12.27;5.40;;;;;;;19.59;64.40;101289.56;5013606;28;20471;-80
2023/06/01 02:09:31;;;;;;;11.73;5.70;;;;;;;19.64;64.17;101287.91;5013620;28;20841;-79
2023/06/01 02:11:56;;;;;;;11.52;5.45;;;;;;;19.66;64.07;101293.91;5014348;28;20376;-79
2023/06/01 02:14:22;;;;;;;12.27;5.53;;;;;;;19.65;64.04;101297.63;5014246;28;20396;-79
2023/06/01 02:16:47;;;;;;;11.03;5.23;;;;;;;19.67;63.71;101289.34;5014710;28;20419;-80
2023/06/01 02:19:15;;;;;;;10.77;5.32;;;;;;;19.67;63.84;101294.72;5015076;28;20734;-79
2023/06/01 02:21:41;;;;;;;10.30;5.40;;;;;;;19.55;64.32;101299.94;5014609;28;20387;-80
2023/06/01 02:24:07;;;;;;;13.15;6.00;;;;;;;19.57;64.54;101303.25;5015224;28;20380;-79
2023/06/01 02:26:33;;;;;;;11.88;6.20;;;;;;;19.55;64.30;101296.44;4997106;28;20376;-80
2023/06/01 02:28:58;;;;;;;10.85;5.22;;;;;;;19.62;64.03;101300.72;5014806;28;20449;-80
2023/06/01 02:31:24;;;;;;;10.50;5.68;;;;;;;19.66;63.83;101306.50;5015693;28;20377;-81
2023/06/01 02:33:50;;;;;;;10.77;5.77;;;;;;;19.68;63.87;101309.81;5015846;28;20411;-80
2023/06/01 02:36:16;;;;;;;11.88;5.68;;;;;;;19.67;63.91;101310.84;5015637;28;20482;-80
2023/06/01 02:38:42;;;;;;;12.30;5.97;;;;;;;19.66;63.80;101314.56;5015974;28;20380;-81
2023/06/01 02:41:08;;;;;;;13.82;6.20;;;;;;;19.70;63.64;101309.59;5018072;28;20372;-81
2023/06/01 02:43:35;;;;;;;12.90;6.00;;;;;;;19.75;63.61;101307.91;4999033;28;20380;-81
2023/06/01 02:46:00;;;;;;;13.15;6.40;;;;;;;19.76;63.55;101306.06;5015080;28;20380;-80
2023/06/01 02:48:26;;;;;;;12.13;6.30;;;;;;;19.70;63.59;101313.13;5015101;28;20485;-82
2023/06/01 02:50:51;;;;;;;15.15;6.85;;;;;;;19.65;63.70;101319.13;5015268;28;20423;-81
2023/06/01 02:53:17;;;;;;;13.90;6.63;;;;;;;19.68;63.78;101316.03;4997406;28;20821;-81
2023/06/01 02:55:42;;;;;;;12.37;6.33;;;;;;;19.77;63.60;101322.00;5013466;28;20431;-81
2023/06/01 02:58:14;;;;;;;11.60;6.03;;;;;;;19.73;63.48;101312.69;5007577;28;20408;-80
2023/06/01 03:00:40;;;;;;;13.35;6.20;;;;;;;19.70;63.51;101312.28;5001866;28;20482;-81
2023/06/01 03:03:05;;;;;;;13.13;6.30;;;;;;;19.73;63.58;101317.22;5004713;28;20411;-80
2023/06/01 03:05:32;;;;;;;13.07;6.33;;;;;;;19.68;63.79;101316.03;5007553;28;20400;-80
2023/06/01 03:07:58;;;;;;;13.82;5.65;;;;;;;19.65;63.76;101318.31;5002111;28;20808;-81
2023/06/01 03:10:24;;;;;;;12.33;6.00;;;;;;;19.76;63.67;101323.03;5009996;28;20454;-79
2023/06/01 03:12:50;;;;;;;14.13;5.85;;;;;;;19.80;63.34;101324.25;5011331;28;20388;-79
2023/06/01 03:15:15;;;;;;;10.27;5.60;;;;;;;19.79;63.32;101319.91;5009645;28;20408;-79
2023/06/01 03:17:41;;;;;;;11.30;6.00;;;;;;;19.79;63.43;101317.22;5010330;28;20420;-79
2023/06/01 03:20:14;;;;;;;12.52;6.05;;;;;;;19.85;63.34;101321.72;5009707;28;20392;-79
2023/06/01 03:22:44;;;;;;;13.65;6.28;;;;;;;19.83;63.34;101313.06;5001239;28;20388;-80
2023/06/01 03:25:12;;;;;;;15.52;6.10;;;;;;;19.85;63.26;101310.16;5014630;28;20872;-80
2023/06/01 03:27:39;;;;;;;11.95;6.10;;;;;;;19.76;63.48;101312.28;4999298;28;20474;-80
2023/06/01 03:30:09;;;;;;;10.30;5.85;;;;;;;19.72;63.77;101320.97;5012209;28;20384;-80
2023/06/01 03:32:38;;;;;;;12.18;5.70;;;;;;;19.68;63.84;101324.09;5011425;28;20740;-80
2023/06/01 03:35:07;;;;;;;11.30;5.50;;;;;;;19.67;63.70;101317.03;4995065;28;20408;-79
2023/06/01 03:37:36;;;;;;;13.43;5.82;;;;;;;19.71;63.65;101317.44;5009137;28;20488;-79
2023/06/01 03:40:10;;;;;;;14.35;5.72;;;;;;;19.78;63.59;101339.78;5011937;28;20428;-80
2023/06/01 03:42:46;;;;;;;11.23;5.65;;;;;;;19.72;63.62;101337.13;5010491;28;20384;-80
2023/06/01 03:45:12;;;;;;;13.77;6.00;;;;;;;19.60;63.82;101339.66;5010096;28;20372;-80
2023/06/01 03:47:38;;;;;;;12.98;5.82;;;;;;;19.47;64.16;101335.97;5004176;28;20776;-79
2023/06/01 03:50:07;;;;;;;14.02;6.05;;;;;;;19.40;64.60;101337.88;5012055;28;20894;-79
2023/06/01 03:52:33;;;;;;;13.68;6.22;;;;;;;19.41;64.58;101327.94;5010973;28;20404;-79
2023/06/01 03:55:04;;;;;;;16.48;6.70;;;;;;;19.51;64.25;101332.88;4994725;28;20423;-79
2023/06/01 03:57:30;;;;;;;14.07;6.47;;;;;;;19.49;64.29;101325.00;5011358;28;20388;-80
2023/06/01 03:59:55;;;;;;;9.97;5.87;;;;;;;19.58;64.05;101326.41;5010199;28;20406;-79
2023/06/01 04:02:22;;;;;;;11.45;6.20;;;;;;;19.57;63.97;101332.00;5009264;28;20955;-80
2023/06/01 04:04:48;;;;;;;11.33;6.40;;;;;;;19.40;64.53;101327.13;5010634;28;20388;-79
2023/06/01 04:07:23;;;;;;;10.17;6.27;;;;;;;19.29;64.72;101330.47;5010011;28;20915;-78
2023/06/01 04:09:48;;;;;;;12.98;6.50;;;;;;;19.24;64.87;101341.84;5008853;28;20423;-79
2023/06/01 04:12:14;;;;;;;13.17;6.77;;;;;;;19.20;65.03;101337.13;5009487;28;20416;-80
2023/06/01 04:14:40;;;;;;;13.00;6.33;;;;;;;19.15;65.10;101329.69;5011785;28;20412;-80
2023/06/01 04:17:06;;;;;;;10.37;5.73;;;;;;;19.16;65.18;101335.88;5012620;28;20810;-81
2023/06/01 04:19:34;;;;;;;11.73;5.93;;;;;;;19.09;65.53;101328.69;5011287;28;20433;-80
2023/06/01 04:22:00;;;;;;;13.52;6.28;;;;;;;19.10;65.41;101322.28;5011609;28;20860;-79
2023/06/01 04:24:25;;;;;;;12.50;6.28;;;;;;;19.25;65.02;101331.94;5012101;28;20499;-78
2023/06/01 04:26:51;;;;;;;12.00;6.30;;;;;;;19.32;64.68;101323.84;5011566;28;20399;-79
2023/06/01 04:29:19;;;;;;;13.18;6.70;;;;;;;19.29;64.92;101333.97;5011053;28;20384;-81
2023/06/01 04:31:45;;;;;;;14.13;7.03;;;;;;;19.29;65.18;101335.84;5011414;28;20380;-80
2023/06/01 04:34:12;;;;;;;13.20;6.97;;;;;;;19.33;64.88;101333.56;5012777;28;20407;-80
2023/06/01 04:36:38;;;;;;;12.60;6.30;;;;;;;19.39;64.78;101332.69;5012247;28;20424;-81
2023/06/01 04:39:08;;;;;;;12.77;6.82;;;;;;;19.49;64.56;101335.75;5013365;28;20442;-80
2023/06/01 04:41:35;;;;;;;11.77;6.63;;;;;;;19.51;64.59;101336.38;5009219;28;20392;-82
2023/06/01 04:44:05;;;;;;;14.65;6.80;;;;;;;19.52;64.88;101334.50;4993701;28;20563;-81
2023/06/01 04:46:30;;;;;;;15.88;7.15;;;;;;;19.58;64.47;101344.41;5011928;28;20384;-82
2023/06/01 04:48:58;;;;;;;15.20;6.68;;;;;;;19.51;64.65;101347.13;5012391;28;20860;-80
2023/06/01 04:51:24;;;;;;;18.42;6.90;;;;;;;19.45;64.63;101335.38;4998452;28;20412;-80
2023/06/01 04:53:51;;;;;;;13.45;6.30;;;;;;;19.60;64.55;101334.25;5015475;28;20447;-80
2023/06/01 04:56:26;;;;;;;13.27;6.85;;;;;;;19.67;64.26;101337.75;5001625;28;20409;-83
2023/06/01 04:58:52;;;;;;;14.18;7.05;;;;;;;19.55;64.55;101340.28;4996398;28;20378;-82
2023/06/01 05:01:18;;;;;;;12.30;6.90;;;;;;;19.47;64.88;101344.03;5005914;28;20766;-83
2023/06/01 05:03:46;;;;;;;9.38;6.72;;;;;;;19.45;65.12;101338.06;5008706;28;20402;-82
2023/06/01 05:06:13;;;;;;;13.57;6.70;;;;;;;19.55;65.03;101337.59;5000344;28;20385;-82
2023/06/01 05:08:39;;;;;;;12.10;6.40;;;;;;;19.55;64.90;101334.09;4997187;28;20390;-81
2023/06/01 05:11:06;;;;;;;12.55;6.78;;;;;;;19.59;65.26;101333.44;4996222;28;20419;-82
2023/06/01 05:13:34;;;;;;;14.52;6.25;;;;;;;19.62;64.81;101332.19;4997225;28;20381;-82
2023/06/01 05:15:59;;;;;;;12.87;6.47;;;;;;;19.53;65.31;101334.28;4979654;28;20386;-84
2023/06/01 05:18:25;;;;;;;12.17;6.40;;;;;;;19.54;65.29;101338.66;4997701;28;20401;-82
2023/06/01 05:20:51;;;;;;;12.13;6.57;;;;;;;19.64;65.15;101339.00;5009060;28;21112;-83
2023/06/01 05:23:16;;;;;;;12.45;5.88;;;;;;;19.59;64.81;101344.22;4950893;28;20377;-81
2023/06/01 05:25:42;;;;;;;10.77;5.60;;;;;;;19.55;64.78;101345.66;4998387;28;21174;-81
2023/06/01 05:28:07;;;;;;;9.60;5.23;;;;;;;19.55;64.71;101342.16;4998036;28;20377;-83
2023/06/01 05:30:33;;;;;;;10.98;5.53;;;;;;;19.55;64.79;101345.66;4981818;28;20482;-81
2023/06/01 05:32:59;;;;;;;11.52;5.47;;;;;;;19.56;64.43;101339.25;4998216;28;20389;-81
2023/06/01 05:35:25;;;;;;;10.00;5.40;;;;;;;19.72;64.43;101339.81;4997698;28;20405;-80
2023/06/01 05:37:50;;;;;;;10.63;5.50;;;;;;;19.92;63.99;101345.91;4978906;28;20469;-80
2023/06/01 05:40:16;;;;;;;10.23;5.50;;;;;;;20.08;63.81;101339.19;4994717;28;20476;-80
2023/06/01 05:42:42;;;;;;;9.47;5.50;;;;;;;20.05;63.31;101336.94;4994535;28;20385;-81
2023/06/01 05:45:09;;;;;;;8.77;5.53;;;;;;;20.17;63.21;101350.53;4995725;28;20389;-81
2023/06/01 05:47:35;;;;;;;9.15;5.68;;;;;;;20.28;63.39;101343.59;4996910;28;20923;-81
2023/06/01 05:50:01;;;;;;;9.35;5.60;;;;;;;20.21;63.24;101341.78;4997512;28;20385;-81
2023/06/01 05:52:27;;;;;;;11.57;6.63;;;;;;;20.42;63.21;101340.56;4996544;28;20468;-82
2023/06/01 05:54:53;;;;;;;11.77;6.05;;;;;;;20.65;62.63;101349.09;5002352;28;20443;-79
2023/06/01 05:57:20;;;;;;;9.07;5.35;;;;;;;20.78;62.36;101351.69;5013495;28;20438;-81
2023/06/01 05:59:46;;;;;;;10.48;6.10;;;;;;;20.93;62.20;101354.03;4980393;28;20401;-83
2023/06/01 06:02:12;;;;;;;10.30;5.63;;;;;;;21.07;62.18;101346.59;4998765;28;20381;-81
2023/06/01 06:04:39;;;;;;;9.55;5.93;;;;;;;21.13;62.14;101346.53;4996996;28;20378;-82
2023/06/01 06:07:05;;;;;;;9.82;5.55;;;;;;;21.18;61.81;101348.56;4996122;28;20527;-81
2023/06/01 06:09:31;;;;;;;8.52;5.15;;;;;;;21.14;61.75;101344.66;4994487;28;20452;-81
2023/06/01 06:11:57;;;;;;;15.20;5.90;;;;;;;21.23;61.42;101354.13;4998362;28;20385;-83
2023/06/01 06:14:22;;;;;;;8.82;5.60;;;;;;;21.35;61.50;101359.56;5008122;28;20415;-81
2023/06/01 06:16:48;;;;;;;9.77;6.17;;;;;;;21.48;61.36;101358.59;5016791;28;20705;-83
2023/06/01 06:19:15;;;;;;;8.60;5.60;;;;;;;21.31;60.77;101348.41;4991758;28;22035;-80
2023/06/01 06:21:41;;;;;;;11.37;6.63;;;;;;;21.45;61.05;101357.19;4975812;28;20409;-83
2023/06/01 06:24:07;;;;;;;8.90;5.75;;;;;;;21.47;60.36;101354.28;4988705;28;20512;-82
2023/06/01 06:26:33;;;;;;;11.07;5.55;;;;;;;21.35;60.72;101344.19;4980849;28;20968;-82
2023/06/01 06:28:58;;;;;;;6.83;5.60;;;;;;;21.64;60.22;101349.06;4980814;28;20422;-80
2023/06/01 06:31:24;;;;;;;14.77;9.88;;;;;;;21.91;60.14;101347.66;4980016;28;20876;-81
2023/06/01 06:33:49;;;;;;;9.13;5.13;;;;;;;21.90;58.59;101345.19;4978674;28;20454;-80
2023/06/01 06:36:16;;;;;;;10.05;5.68;;;;;;;21.74;58.91;101347.47;4986245;28;20473;-80
2023/06/01 06:38:41;;;;;;;9.13;4.90;;;;;;;21.93;58.72;101356.34;4972861;28;20416;-82
2023/06/01 06:41:07;;;;;;;9.97;5.20;;;;;;;21.90;58.54;101348.69;4978817;28;20391;-82
2023/06/01 06:43:32;;;;;;;9.80;5.72;;;;;;;22.05;58.54;101364.47;4991923;28;20383;-81
2023/06/01 06:45:58;;;;;;;9.03;5.20;;;;;;;22.09;57.96;101345.91;5002700;28;20740;-83
2023/06/01 06:48:23;;;;;;;8.13;5.43;;;;;;;22.28;57.31;101352.09;4994757;28;20433;-81
2023/06/01 06:50:49;;;;;;;9.00;5.17;;;;;;;22.30;57.48;101356.22;4996049;28;20382;-80
2023/06/01 06:53:14;;;;;;;11.47;5.63;;;;;;;22.25;57.26;101350.66;4984504;28;20780;-81
2023/06/01 06:55:42;;;;;;;9.00;5.40;;;;;;;22.27;57.25;101350.44;5013724;28;20435;-80
2023/06/01 06:58:10;;;;;;;9.17;5.17;;;;;;;22.40;56.87;101344.00;5004231;28;20392;-80
2023/06/01 07:00:36;;;;;;;9.93;5.00;;;;;;;22.65;56.82;101347.31;5019237;28;20384;-80
2023/06/01 07:03:01;;;;;;;7.53;5.40;;;;;;;22.68;56.75;101344.13;5015222;28;20468;-82
2023/06/01 07:05:27;;;;;;;10.60;5.20;;;;;;;22.79;55.85;101352.47;4997325;28;20394;-84
2023/06/01 07:07:52;;;;;;;9.00;5.80;;;;;;;22.71;56.27;101348.25;5016347;28;20706;-81
2023/06/01 07:10:19;;;;;;;10.93;5.72;;;;;;;22.84;56.29;101353.41;5015354;28;20434;-82
2023/06/01 07:12:44;;;;;;;9.93;5.63;;;;;;;22.95;56.57;101359.88;5012605;28;20839;-80
2023/06/01 07:15:10;;;;;;;7.47;5.20;;;;;;;23.09;56.87;101352.38;5015448;28;20427;-81
2023/06/01 07:17:36;;;;;;;12.63;5.47;;;;;;;23.20;56.20;101362.31;5022975;28;20391;-82
2023/06/01 07:20:06;;;;;;;7.75;5.40;;;;;;;23.20;55.63;101362.31;4999530;28;20816;-80
2023/06/01 07:22:33;;;;;;;9.80;5.65;;;;;;;22.94;56.16;101357.41;5014129;28;20479;-81
2023/06/01 07:24:58;;;;;;;7.60;5.60;;;;;;;23.03;56.10;101356.81;5014338;28;20864;-82
2023/06/01 07:27:24;;;;;;;9.40;6.00;;;;;;;23.24;56.09;101368.09;4997266;28;20386;-81
2023/06/01 07:29:55;;;;;;;10.83;5.97;;;;;;;23.37;56.04;101367.84;5015514;28;20471;-82
2023/06/01 07:32:24;;;;;;;10.77;5.80;;;;;;;23.42;55.91;101357.09;5014348;28;20714;-81
2023/06/01 07:34:50;;;;;;;8.23;5.70;;;;;;;23.32;55.60;101359.59;5014403;28;20411;-82
2023/06/01 07:37:16;;;;;;;8.73;5.20;;;;;;;23.07;55.51;101363.41;5014328;28;20488;-80
2023/06/01 07:39:41;;;;;;;9.77;5.90;;;;;;;23.12;56.04;101365.41;4998535;28;20471;-83
2023/06/01 07:42:07;;;;;;;9.80;5.80;;;;;;;23.46;55.63;101355.56;5015007;28;20849;-79
2023/06/01 07:44:33;;;;;;;11.00;6.47;;;;;;;23.71;54.95;101354.38;4995683;28;20785;-81
2023/06/01 07:46:58;;;;;;;9.65;6.05;;;;;;;23.89;54.79;101358.81;5013610;28;20388;-80
2023/06/01 07:49:24;;;;;;;10.48;6.13;;;;;;;23.90;54.31;101351.53;5013727;28;20380;-81
2023/06/01 07:51:51;;;;;;;11.43;6.57;;;;;;;23.87;55.21;101352.81;5014037;28;20383;-80
2023/06/01 07:54:17;;;;;;;9.48;6.43;;;;;;;23.81;55.06;101356.50;5013014;28;20902;-81
2023/06/01 07:56:43;;;;;;;11.40;6.65;;;;;;;23.62;54.82;101350.44;5012853;28;20495;-80
2023/06/01 07:59:08;;;;;;;11.73;6.73;;;;;;;23.66;54.97;101340.78;5013278;28;20426;-85
2023/06/01 08:01:34;;;;;;;9.38;6.63;;;;;;;23.77;54.39;101347.19;5014311;28;20384;-80
2023/06/01 08:04:01;;;;;;;11.83;7.53;;;;;;;24.02;54.46;101344.13;5014091;28;20410;-82
2023/06/01 08:06:27;;;;;;;10.18;6.72;;;;;;;24.23;54.11;101343.41;5013698;28;20419;-80
2023/06/01 08:08:53;;;;;;;12.00;6.15;;;;;;;24.40;53.45;101343.44;4997613;28;20458;-80
2023/06/01 08:11:18;;;;;;;10.97;6.60;;;;;;;24.58;53.22;101339.66;5016433;28;20384;-80
2023/06/01 08:13:48;;;;;;;10.45;6.38;;;;;;;24.78;52.84;101346.47;5019045;28;20415;-83
2023/06/01 08:16:13;;;;;;;11.48;6.28;;;;;;;24.70;52.46;101339.56;5014252;28;20761;-81
2023/06/01 08:18:39;;;;;;;9.10;5.57;;;;;;;24.61;52.44;101333.75;5013926;28;20392;-81
2023/06/01 08:21:05;;;;;;;10.23;5.20;;;;;;;24.45;52.59;101334.53;5014483;28;20387;-80
2023/06/01 08:23:30;;;;;;;11.47;6.00;;;;;;;24.43;52.79;101334.81;5016459;28;20384;-84
2023/06/01 08:25:56;;;;;;;7.28;5.50;;;;;;;24.32;52.74;101334.88;5025661;28;20395;-85
2023/06/01 08:28:22;;;;;;;10.43;5.40;;;;;;;24.41;53.05;101327.97;5005209;28;20467;-80
2023/06/01 08:30:47;;;;;;;8.17;5.50;;;;;;;24.44;52.67;101330.22;5016740;28;20853;-81
2023/06/01 08:33:13;;;;;;;11.27;5.70;;;;;;;24.59;52.61;101325.03;5021580;28;20446;-83
2023/06/01 08:35:38;;;;;;;9.13;5.60;;;;;;;24.62;52.16;101329.16;5019146;28;20408;-80
2023/06/01 08:38:05;;;;;;;11.07;5.47;;;;;;;24.79;51.99;101329.09;5017620;28;20489;-81
2023/06/01 08:40:33;;;;;;;10.98;6.15;;;;;;;25.25;51.42;101331.63;4999640;28;20388;-81
2023/06/01 08:43:17;;;;;;;12.17;5.43;;;;;;;24.93;50.93;101321.44;5017068;28;20388;-81
2023/06/01 08:45:43;;;;;;;8.82;5.55;;;;;;;24.96;51.82;101323.66;5018731;28;20396;-81
2023/06/01 08:48:14;;;;;;;10.80;6.05;;;;;;;25.08;51.82;101324.31;5017918;28;20487;-82
2023/06/01 08:50:40;;;;;;;10.30;5.30;;;;;;;25.24;52.04;101319.94;5000568;28;20384;-81
2023/06/01 08:53:06;;;;;;;10.02;5.40;;;;;;;25.58;50.98;101308.09;5001060;28;20399;-82
2023/06/01 08:55:31;;;;;;;9.10;5.17;;;;;;;25.65;50.60;101304.09;5023686;28;20434;-82
2023/06/01 08:57:57;;;;;;;6.40;5.15;;;;;;;25.63;49.81;101310.88;5025731;28;20391;-84
2023/06/01 09:00:24;;;;;;;9.93;4.50;;;;;;;25.65;49.39;101312.25;5018931;28;20415;-82
2023/06/01 09:02:49;;;;;;;9.02;4.53;;;;;;;25.74;48.43;101301.75;5017401;28;20399;-82
2023/06/01 09:05:17;;;;;;;11.47;5.20;;;;;;;26.04;47.56;101300.41;5015831;28;20391;-81
2023/06/01 09:07:42;;;;;;;10.82;4.78;;;;;;;26.19;46.98;101305.13;4999301;28;20891;-81
2023/06/01 09:10:08;;;;;;;11.55;5.72;;;;;;;26.28;47.41;101290.78;5016505;28;20402;-80
2023/06/01 09:12:40;;;;;;;12.20;5.67;;;;;;;26.33;47.98;101293.56;5015531;28;20467;-81
2023/06/01 09:15:10;;;;;;;7.20;5.00;;;;;;;26.20;47.59;101288.56;5022397;28;20408;-82
2023/06/01 09:17:37;;;;;;;8.52;4.80;;;;;;;26.46;47.09;101291.47;5022455;28;20391;-82
2023/06/01 09:20:04;;;;;;;8.63;4.82;;;;;;;26.39;45.92;101288.97;5017774;28;20845;-82
2023/06/01 09:22:43;;;;;;;9.10;5.00;;;;;;;26.48;45.42;101289.28;5015364;28;20393;-82
2023/06/01 09:25:10;;;;;;;7.23;4.23;;;;;;;26.31;45.40;101297.63;5015932;28;20702;-82
2023/06/01 09:27:49;;;;;;;8.85;4.00;;;;;;;26.37;45.26;101285.69;5016005;28;20412;-84
2023/06/01 09:30:18;;;;;;;7.60;3.88;;;;;;;26.65;44.08;101289.13;5018464;28;20391;-81
2023/06/01 09:32:47;;;;;;;9.32;4.10;;;;;;;26.29;44.48;101286.19;4999104;28;20400;-82
2023/06/01 09:35:13;;;;;;;7.22;3.90;;;;;;;26.12;43.98;101279.00;5017560;28;20408;-82
2023/06/01 09:37:38;;;;;;;6.53;3.80;;;;;;;26.23;44.02;101282.59;5017885;28;20392;-81
2023/06/01 09:40:18;;;;;;;8.50;3.72;;;;;;;26.69;42.34;101282.91;5018474;28;20388;-83
2023/06/01 09:42:43;;;;;;;8.40;3.92;;;;;;;26.51;41.31;101281.44;5000325;28;20385;-82
2023/06/01 09:45:17;;;;;;;8.17;3.87;;;;;;;26.27;41.28;101275.59;5018140;28;20671;-81
2023/06/01 09:47:42;;;;;;;6.35;3.90;;;;;;;26.25;41.59;101269.59;5015150;28;20380;-82
2023/06/01 09:50:08;;;;;;;11.30;4.47;;;;;;;26.47;40.94;101271.31;5019909;28;20488;-83
2023/06/01 09:52:34;;;;;;;8.52;4.05;;;;;;;26.82;40.92;101264.47;5017116;28;20412;-84
2023/06/01 09:55:05;;;;;;;8.93;4.20;;;;;;;26.63;39.93;101266.81;5016428;28;20443;-83
2023/06/01 09:57:31;;;;;;;7.17;4.13;;;;;;;26.72;40.62;101276.13;5019199;28;20396;-82
2023/06/01 09:59:57;;;;;;;7.72;4.20;;;;;;;26.76;40.32;101268.25;5015633;28;20789;-81
2023/06/01 10:02:23;;;;;;;5.93;3.83;;;;;;;26.86;40.73;101258.22;5008009;28;20415;-84
2023/06/01 10:04:50;;;;;;;11.07;4.38;;;;;;;26.91;40.73;101264.78;5003177;28;20384;-82
2023/06/01 10:07:17;;;;;;;9.25;4.28;;;;;;;26.86;40.81;101266.38;5003603;28;20471;-82
2023/06/01 10:09:45;;;;;;;7.00;4.30;;;;;;;26.97;41.15;101261.00;4989222;28;20652;-82
2023/06/01 10:12:11;;;;;;;7.90;4.17;;;;;;;26.87;41.62;101265.31;5014591;28;20387;-83
2023/06/01 10:14:39;;;;;;;6.47;3.85;;;;;;;26.95;40.94;101260.44;5014963;28;20594;-83
2023/06/01 10:17:05;;;;;;;9.40;4.13;;;;;;;27.08;40.91;101255.34;4998653;28;20390;-84
2023/06/01 10:19:31;;;;;;;9.20;4.25;;;;;;;26.91;40.98;101265.59;4998993;28;20387;-82
2023/06/01 10:21:59;;;;;;;6.00;3.60;;;;;;;26.81;41.29;101252.78;5020988;28;20384;-84
2023/06/01 10:24:26;;;;;;;5.78;4.10;;;;;;;26.98;40.64;101251.75;5025541;28;20880;-86
2023/06/01 10:26:59;;;;;;;7.35;3.95;;;;;;;26.84;41.55;101246.78;4987786;28;20403;-83
2023/06/01 10:29:25;;;;;;;6.53;3.80;;;;;;;27.23;41.32;101245.56;5018766;28;20454;-83
2023/06/01 10:31:51;;;;;;;6.07;3.88;;;;;;;27.19;41.21;101245.28;5021543;28;20396;-87
2023/06/01 10:34:37;;;;;;;5.53;4.05;;;;;;;27.30;41.08;101231.72;4991767;28;20416;-86
2023/06/01 10:37:03;;;;;;;7.03;4.00;;;;;;;27.33;41.18;101226.53;5019092;28;20455;-82
2023/06/01 10:39:29;;;;;;;7.37;4.17;;;;;;;27.30;40.71;101220.81;5020177;28;20487;-83
2023/06/01 10:41:57;;;;;;;8.57;4.03;;;;;;;27.01;41.21;101215.81;4983991;28;20381;-83
2023/06/01 10:44:44;;;;;;;12.00;4.30;;;;;;;27.27;41.01;101208.59;5017558;28;20384;-82
2023/06/01 10:47:12;;;;;;;8.00;4.28;;;;;;;27.13;41.26;101210.97;5015146;28;20380;-86
2023/06/01 10:49:47;;;;;;;8.70;4.32;;;;;;;27.11;41.81;101204.16;5015195;28;20385;-82
2023/06/01 10:52:32;;;;;;;9.73;4.43;;;;;;;27.29;41.66;101194.69;5014906;28;20455;-82
2023/06/01 10:55:10;;;;;;;8.43;4.73;;;;;;;27.39;41.66;101184.63;5006212;28;20429;-82
2023/06/01 10:57:38;;;;;;;8.90;4.57;;;;;;;27.48;42.19;101192.25;5042040;28;20397;-82
2023/06/01 11:00:26;;;;;;;10.35;4.50;;;;;;;27.51;41.62;101183.53;5026559;28;20387;-84
2023/06/01 11:02:59;;;;;;;8.93;4.80;;;;;;;27.12;42.10;101176.69;5014459;28;20890;-83
2023/06/01 11:05:47;;;;;;;9.23;4.32;;;;;;;27.57;42.37;101168.84;5015144;28;20399;-81
2023/06/01 11:08:21;;;;;;;6.97;4.07;;;;;;;27.70;42.58;101165.56;5017624;28;20368;-82
2023/06/01 11:10:50;;;;;;;9.23;4.75;;;;;;;27.65;42.21;101166.38;5015895;28;20380;-83
2023/06/01 11:13:18;;;;;;;10.45;4.72;;;;;;;27.66;42.65;101167.22;5014382;28;20403;-82
2023/06/01 11:16:21;;;;;;;6.90;4.03;;;;;;;27.83;42.71;101158.72;5031001;28;20410;-84
2023/06/01 11:18:58;;;;;;;8.47;4.23;;;;;;;28.00;42.29;101172.06;5028051;28;20377;-83
2023/06/01 11:21:27;;;;;;;9.65;4.40;;;;;;;28.20;42.14;101171.22;5037820;28;20386;-83
2023/06/01 11:23:54;;;;;;;9.50;4.38;;;;;;;28.18;41.45;101181.56;5014293;28;20853;-82